createdAt,value
2022-10-19T00:00:11.470Z,99713.94
2022-10-19T00:01:18.810Z,99714.82
2022-10-19T00:02:21.294Z,99699.77
2022-10-19T00:03:23.450Z,99704.16
2022-10-19T00:04:26.626Z,99701.50
2022-10-19T00:05:29.858Z,99705.86
2022-10-19T00:06:33.763Z,99708.52
2022-10-19T00:07:36.371Z,99702.34
2022-10-19T00:08:38.685Z,99704.07
2022-10-19T00:09:43.216Z,99699.59
2022-10-19T00:10:46.603Z,99688.09
2022-10-19T00:11:50.072Z,99695.20
2022-10-19T00:12:52.248Z,99684.55
2022-10-19T00:13:54.895Z,99690.75
2022-10-19T00:14:59.167Z,99690.84
2022-10-19T00:16:01.398Z,99685.52
2022-10-19T00:17:04.010Z,99686.36
2022-10-19T00:18:07.101Z,99683.70
2022-10-19T00:19:12.652Z,99682.85
2022-10-19T00:20:15.687Z,99677.53
2022-10-19T00:21:18.722Z,99682.85
2022-10-19T00:22:21.167Z,99667.72
2022-10-19T00:23:23.842Z,99676.55
2022-10-19T00:24:26.403Z,99673.05
2022-10-19T00:25:28.412Z,99670.38
2022-10-19T00:26:30.471Z,99668.56
2022-10-19T00:27:33.603Z,99666.88
2022-10-19T00:28:35.981Z,99669.53
2022-10-19T00:29:38.271Z,99662.39
2022-10-19T00:30:40.424Z,99660.66
2022-10-19T00:31:43.199Z,99652.67
2022-10-19T00:32:45.607Z,99656.22
2022-10-19T00:33:47.628Z,99655.34
2022-10-19T00:34:49.602Z,99648.23
2022-10-19T00:35:51.939Z,99649.07
2022-10-19T00:36:54.430Z,99644.69
2022-10-19T00:37:57.466Z,99644.69
2022-10-19T00:38:59.829Z,99641.17
2022-10-19T00:40:02.072Z,99636.69
2022-10-19T00:41:06.178Z,99641.17
2022-10-19T00:42:12.702Z,99641.92
2022-10-19T00:43:16.029Z,99610.34
2022-10-19T00:44:21.850Z,99610.34
2022-10-19T00:45:24.060Z,99615.29
2022-10-19T00:46:27.984Z,99616.26
2022-10-19T00:47:31.233Z,99613.59
2022-10-19T00:48:33.538Z,99615.38
2022-10-19T00:49:37.843Z,99611.87
2022-10-19T00:50:40.232Z,99612.72
2022-10-19T00:52:57.599Z,99607.73
2022-10-19T00:54:00.235Z,99606.55
2022-10-19T00:55:03.012Z,99603.88
2022-10-19T00:56:08.758Z,99602.94
2022-10-19T00:57:13.540Z,99590.56
2022-10-19T00:58:16.239Z,99588.74
2022-10-19T00:59:20.161Z,99591.41
2022-10-19T01:00:22.335Z,99589.63
2022-10-19T01:01:25.303Z,99586.95
2022-10-19T01:02:27.456Z,99587.91
2022-10-19T01:03:29.449Z,99592.29
2022-10-19T01:04:33.139Z,99588.74
2022-10-19T01:05:35.389Z,99588.74
2022-10-19T01:06:38.420Z,99586.95
2022-10-19T01:07:40.502Z,99585.23
2022-10-19T01:08:42.636Z,99583.42
2022-10-19T01:09:45.482Z,99588.74
2022-10-19T01:10:54.271Z,99586.95
2022-10-19T01:12:15.376Z,99582.48
2022-10-19T01:13:30.268Z,99580.75
2022-10-19T01:14:48.460Z,99571.92
2022-10-19T01:16:00.353Z,99580.85
2022-10-19T01:17:09.559Z,99577.34
2022-10-19T01:18:15.478Z,99572.11
2022-10-19T01:19:55.752Z,99571.23
2022-10-19T01:21:18.717Z,99572.17
2022-10-19T01:22:58.674Z,99570.58
2022-10-19T01:24:31.022Z,99561.80
2022-10-19T01:25:59.729Z,99568.08
2022-10-19T01:28:45.142Z,99565.16
2022-10-19T01:30:02.122Z,99557.90
2022-10-19T01:31:23.115Z,99555.33
2022-10-19T01:32:29.529Z,99555.42
2022-10-19T01:35:04.863Z,99546.86
2022-10-19T01:37:52.572Z,99542.41
2022-10-19T01:39:01.595Z,99550.10
2022-10-19T01:41:40.355Z,99549.34
2022-10-19T01:42:48.544Z,99543.80
2022-10-19T01:44:00.429Z,99551.79
2022-10-19T01:45:21.575Z,99544.68
2022-10-19T01:46:30.195Z,99544.58
2022-10-19T01:48:55.801Z,99543.95
2022-10-19T01:50:16.341Z,99543.64
2022-10-19T01:51:22.539Z,99543.64
2022-10-19T01:52:24.937Z,99540.10
2022-10-19T01:53:29.189Z,99540.10
2022-10-19T01:54:34.537Z,99539.16
2022-10-19T01:55:38.670Z,99540.10
2022-10-19T01:56:41.927Z,99533.84
2022-10-19T01:57:48.859Z,99540.01
2022-10-19T01:58:50.928Z,99529.36
2022-10-19T01:59:52.927Z,99536.41
2022-10-19T02:00:55.927Z,99531.92
2022-10-19T02:01:58.163Z,99528.41
2022-10-19T02:03:00.163Z,99534.52
2022-10-19T02:04:02.401Z,99528.32
2022-10-19T02:05:04.933Z,99530.88
2022-10-19T02:06:08.388Z,99524.72
2022-10-19T02:07:10.934Z,99522.89
2022-10-19T02:08:15.572Z,99522.89
2022-10-19T02:09:17.735Z,99522.89
2022-10-19T02:10:20.016Z,99513.13
2022-10-19T02:11:22.317Z,99518.34
2022-10-19T02:12:24.672Z,99520.04
2022-10-19T02:13:26.784Z,99516.53
2022-10-19T02:14:31.482Z,99520.92
2022-10-19T02:15:35.168Z,99521.76
2022-10-19T02:16:41.015Z,99519.88
2022-10-19T02:17:45.947Z,99511.98
2022-10-19T02:18:49.298Z,99509.58
2022-10-19T02:19:52.593Z,99509.58
2022-10-19T02:20:55.142Z,99517.31
2022-10-19T02:21:57.243Z,99518.16
2022-10-19T02:22:59.304Z,99521.66
2022-10-19T02:24:01.334Z,99519.88
2022-10-19T02:25:05.031Z,99511.89
2022-10-19T02:26:07.516Z,99493.24
2022-10-19T02:27:10.336Z,99499.42
2022-10-19T02:28:12.942Z,99504.74
2022-10-19T02:29:15.079Z,99506.47
2022-10-19T02:30:17.984Z,99507.31
2022-10-19T02:31:20.533Z,99504.64
2022-10-19T02:32:22.515Z,99509.88
2022-10-19T02:33:24.994Z,99508.09
2022-10-19T02:34:27.093Z,99505.42
2022-10-19T02:35:28.996Z,99500.09
2022-10-19T02:36:31.293Z,99508.09
2022-10-19T02:37:33.343Z,99508.93
2022-10-19T02:38:36.170Z,99505.42
2022-10-19T02:39:38.631Z,99511.59
2022-10-19T02:40:43.770Z,99508.09
2022-10-19T02:41:55.603Z,99507.21
2022-10-19T02:43:03.528Z,99509.03
2022-10-19T02:45:31.670Z,99514.48
2022-10-19T02:47:04.236Z,99516.08
2022-10-19T02:48:20.954Z,99509.88
2022-10-19T02:49:23.111Z,99504.55
2022-10-19T02:50:25.280Z,99511.79
2022-10-19T02:51:35.897Z,99509.12
2022-10-19T02:52:42.280Z,99509.12
2022-10-19T02:53:45.342Z,99508.25
2022-10-19T02:54:47.401Z,99511.02
2022-10-19T02:55:50.574Z,99507.41
2022-10-19T02:56:53.843Z,99507.41
2022-10-19T02:57:57.542Z,99507.41
2022-10-19T02:59:00.703Z,99516.34
2022-10-19T03:00:07.184Z,99508.25
2022-10-19T03:01:09.678Z,99519.88
2022-10-19T03:02:12.678Z,99514.55
2022-10-19T03:03:14.879Z,99512.73
2022-10-19T03:04:16.869Z,99505.59
2022-10-19T03:05:18.971Z,99517.96
2022-10-19T03:06:21.166Z,99517.86
2022-10-19T03:07:23.238Z,99512.64
2022-10-19T03:08:25.771Z,99509.88
2022-10-19T03:09:27.848Z,99508.93
2022-10-19T03:10:29.970Z,99508.09
2022-10-19T03:11:32.581Z,99507.11
2022-10-19T03:12:35.370Z,99508.93
2022-10-19T03:13:40.598Z,99510.66
2022-10-19T03:14:43.463Z,99506.27
2022-10-19T03:15:46.558Z,99502.66
2022-10-19T03:16:49.422Z,99505.33
2022-10-19T03:17:52.674Z,99503.51
2022-10-19T03:18:55.786Z,99501.72
2022-10-19T03:19:58.383Z,99498.18
2022-10-19T03:21:05.906Z,99494.58
2022-10-19T03:22:08.025Z,99495.42
2022-10-19T03:23:10.063Z,99487.42
2022-10-19T03:24:13.292Z,99488.30
2022-10-19T03:25:16.278Z,99493.63
2022-10-19T03:26:19.132Z,99492.76
2022-10-19T03:27:21.653Z,99489.25
2022-10-19T03:28:24.057Z,99482.39
2022-10-19T03:29:26.163Z,99482.39
2022-10-19T03:30:29.466Z,99486.48
2022-10-19T03:31:31.774Z,99486.48
2022-10-19T03:32:33.756Z,99488.30
2022-10-19T03:33:35.856Z,99486.48
2022-10-19T03:34:37.920Z,99483.82
2022-10-19T03:35:40.044Z,99489.15
2022-10-19T03:36:43.190Z,99483.82
2022-10-19T03:37:45.368Z,99485.64
2022-10-19T03:40:01.659Z,99471.66
2022-10-19T03:41:07.404Z,99477.55
2022-10-19T03:42:09.988Z,99477.55
2022-10-19T03:43:13.124Z,99471.34
2022-10-19T03:44:15.276Z,99474.89
2022-10-19T03:45:17.304Z,99473.06
2022-10-19T03:46:20.375Z,99472.16
2022-10-19T03:47:22.906Z,99468.58
2022-10-19T03:48:25.007Z,99473.00
2022-10-19T03:49:27.664Z,99461.50
2022-10-19T03:50:30.012Z,99467.67
2022-10-19T03:51:32.313Z,99476.55
2022-10-19T03:52:34.302Z,99469.39
2022-10-19T03:53:36.404Z,99465.89
2022-10-19T03:54:38.984Z,99464.06
2022-10-19T03:55:43.049Z,99464.06
2022-10-19T03:56:45.287Z,99456.92
2022-10-19T03:57:47.747Z,99456.92
2022-10-19T03:58:50.820Z,99452.47
2022-10-19T03:59:53.908Z,99452.47
2022-10-19T04:00:56.219Z,99448.08
2022-10-19T04:01:59.765Z,99449.80
2022-10-19T04:03:02.806Z,99447.14
2022-10-19T04:04:06.994Z,99461.41
2022-10-19T04:05:09.025Z,99462.25
2022-10-19T04:06:19.606Z,99460.46
2022-10-19T04:07:20.688Z,99459.59
2022-10-19T04:08:24.866Z,99457.80
2022-10-19T04:09:27.259Z,99454.25
2022-10-19T04:10:30.571Z,99455.23
2022-10-19T04:11:33.505Z,99454.36
2022-10-19T04:12:36.488Z,99448.19
2022-10-19T04:13:38.671Z,99456.17
2022-10-19T04:14:56.295Z,99456.17
2022-10-19T04:15:44.794Z,99456.17
2022-10-19T04:16:47.247Z,99455.23
2022-10-19T04:17:49.238Z,99446.36
2022-10-19T04:18:51.376Z,99449.03
2022-10-19T04:19:53.453Z,99454.25
2022-10-19T04:21:04.088Z,99460.46
2022-10-19T04:22:06.233Z,99462.34
2022-10-19T04:23:08.282Z,99467.67
2022-10-19T04:24:12.394Z,99468.55
2022-10-19T04:25:14.540Z,99465.92
2022-10-19T04:26:17.288Z,99475.67
2022-10-19T04:27:19.296Z,99472.06
2022-10-19T04:28:21.281Z,99475.56
2022-10-19T04:29:27.909Z,99470.23
2022-10-19T04:30:28.731Z,99466.73
2022-10-19T04:31:30.880Z,99479.11
2022-10-19T04:32:32.955Z,99480.89
2022-10-19T04:33:35.113Z,99474.72
2022-10-19T04:34:39.891Z,99473.88
2022-10-19T04:35:41.210Z,99475.56
2022-10-19T04:36:43.295Z,99487.20
2022-10-19T04:37:45.826Z,99486.32
2022-10-19T04:38:48.394Z,99488.05
2022-10-19T04:39:50.468Z,99491.65
2022-10-19T04:40:53.569Z,99483.56
2022-10-19T04:41:56.741Z,99479.11
2022-10-19T04:42:58.909Z,99476.45
2022-10-19T04:44:02.497Z,99479.11
2022-10-19T04:45:05.185Z,99475.47
2022-10-19T04:46:09.889Z,99478.23
2022-10-19T04:47:12.778Z,99472.80
2022-10-19T04:48:15.820Z,99480.80
2022-10-19T04:49:20.236Z,99485.28
2022-10-19T04:50:23.565Z,99480.89
2022-10-19T04:51:26.918Z,99491.55
2022-10-19T04:52:30.221Z,99488.05
2022-10-19T04:53:32.265Z,99488.89
2022-10-19T04:54:34.425Z,99484.53
2022-10-19T04:55:41.515Z,99495.19
2022-10-19T04:56:43.958Z,99492.53
2022-10-19T04:57:46.089Z,99489.86
2022-10-19T04:58:48.273Z,99504.02
2022-10-19T04:59:50.936Z,99496.13
2022-10-19T05:00:53.534Z,99491.65
2022-10-19T05:01:55.747Z,99488.14
2022-10-19T05:02:58.289Z,99485.48
2022-10-19T05:04:01.812Z,99478.39
2022-10-19T05:05:04.907Z,99461.56
2022-10-19T05:06:07.569Z,99450.91
2022-10-19T05:07:09.790Z,99461.56
2022-10-19T05:08:12.720Z,99477.55
2022-10-19T05:09:14.826Z,99495.32
2022-10-19T05:10:18.072Z,99493.53
2022-10-19T05:11:20.358Z,99482.00
2022-10-19T05:12:22.563Z,99487.33
2022-10-19T05:13:25.225Z,99487.33
2022-10-19T05:15:32.194Z,99485.55
2022-10-19T05:16:35.063Z,99500.65
2022-10-19T05:17:37.829Z,99504.19
2022-10-19T05:18:40.095Z,99502.38
2022-10-19T05:19:42.111Z,99498.86
2022-10-19T05:20:44.468Z,99506.86
2022-10-19T05:21:46.612Z,99500.65
2022-10-19T05:22:48.763Z,99504.19
2022-10-19T05:23:51.756Z,99516.53
2022-10-19T05:24:57.349Z,99530.83
2022-10-19T05:26:06.549Z,99530.83
2022-10-19T05:27:08.618Z,99521.95
2022-10-19T05:28:10.744Z,99532.52
2022-10-19T05:29:13.437Z,99536.16
2022-10-19T05:30:18.446Z,99538.81
2022-10-19T05:31:20.717Z,99532.61
2022-10-19T05:32:23.314Z,99530.05
2022-10-19T05:33:25.329Z,99544.24
2022-10-19T05:34:28.246Z,99545.09
2022-10-19T05:35:30.329Z,99541.58
2022-10-19T05:36:34.401Z,99537.19
2022-10-19T05:37:37.701Z,99543.36
2022-10-19T05:38:40.257Z,99542.42
2022-10-19T05:39:43.179Z,99534.44
2022-10-19T05:40:46.903Z,99524.62
2022-10-19T05:41:50.746Z,99510.45
2022-10-19T05:42:54.161Z,99518.45
2022-10-19T05:43:57.694Z,99539.77
2022-10-19T05:45:00.556Z,99537.09
2022-10-19T05:47:28.659Z,99533.81
2022-10-19T05:48:29.800Z,99550.41
2022-10-19T05:49:31.946Z,99551.26
2022-10-19T05:50:34.588Z,99544.24
2022-10-19T05:51:38.946Z,99537.09
2022-10-19T05:52:41.108Z,99537.09
2022-10-19T05:53:43.480Z,99539.77
2022-10-19T05:54:45.909Z,99526.44
2022-10-19T05:55:48.093Z,99528.16
2022-10-19T05:56:50.882Z,99535.28
2022-10-19T05:57:52.859Z,99529.11
2022-10-19T05:58:55.751Z,99539.77
2022-10-19T05:59:57.804Z,99541.48
2022-10-19T06:01:00.473Z,99542.33
2022-10-19T06:02:02.689Z,99538.81
2022-10-19T06:03:05.292Z,99530.83
2022-10-19T06:04:07.615Z,99541.48
2022-10-19T06:05:09.675Z,99543.27
2022-10-19T06:06:12.261Z,99541.48
2022-10-19T06:07:14.415Z,99539.66
2022-10-19T06:08:17.763Z,99540.61
2022-10-19T06:09:19.959Z,99554.80
2022-10-19T06:10:22.187Z,99544.98
2022-10-19T06:11:32.444Z,99543.27
2022-10-19T06:12:34.634Z,99548.59
2022-10-19T06:13:37.566Z,99546.03
2022-10-19T06:14:39.968Z,99549.57
2022-10-19T06:15:42.168Z,99546.91
2022-10-19T06:16:44.668Z,99547.75
2022-10-19T06:17:46.856Z,99555.74
2022-10-19T06:18:49.031Z,99561.07
2022-10-19T06:19:51.153Z,99555.74
2022-10-19T06:20:53.350Z,99549.47
2022-10-19T06:21:55.493Z,99557.47
2022-10-19T06:22:57.922Z,99557.47
2022-10-19T06:24:03.301Z,99566.30
2022-10-19T06:25:06.461Z,99567.24
2022-10-19T06:26:13.731Z,99576.11
2022-10-19T06:27:16.844Z,99575.23
2022-10-19T06:28:19.119Z,99589.43
2022-10-19T06:29:21.395Z,99574.30
2022-10-19T06:30:23.826Z,99584.10
2022-10-19T06:32:59.708Z,99579.11
2022-10-19T06:34:02.007Z,99578.77
2022-10-19T06:35:05.302Z,99578.77
2022-10-19T06:36:15.618Z,99569.16
2022-10-19T06:37:18.201Z,99596.64
2022-10-19T06:38:20.300Z,99563.83
2022-10-19T06:39:22.295Z,99566.49
2022-10-19T06:40:24.883Z,99587.70
2022-10-19T06:41:27.444Z,99570.88
2022-10-19T06:42:29.578Z,99577.05
2022-10-19T06:43:31.978Z,99578.88
2022-10-19T06:44:33.991Z,99585.98
2022-10-19T06:45:39.237Z,99579.81
2022-10-19T06:46:41.525Z,99596.64
2022-10-19T06:47:43.685Z,99603.78
2022-10-19T06:48:54.678Z,99594.95
2022-10-19T06:49:56.941Z,99592.29
2022-10-19T06:51:01.624Z,99593.23
2022-10-19T06:52:04.108Z,99599.40
2022-10-19T06:53:06.127Z,99603.00
2022-10-19T06:54:09.068Z,99595.89
2022-10-19T06:55:12.080Z,99595.89
2022-10-19T06:56:15.888Z,99595.89
2022-10-19T06:57:18.799Z,99595.89
2022-10-19T06:58:21.341Z,99592.29
2022-10-19T06:59:25.330Z,99597.61
2022-10-19T07:00:30.269Z,99625.94
2022-10-19T07:01:33.121Z,99609.11
2022-10-19T07:02:35.134Z,99609.95
2022-10-19T07:03:38.564Z,99607.30
2022-10-19T07:04:40.717Z,99609.11
2022-10-19T07:05:56.496Z,99598.36
2022-10-19T07:06:58.644Z,99604.63
2022-10-19T07:08:00.708Z,99615.19
2022-10-19T07:09:03.022Z,99623.18
2022-10-19T07:10:07.651Z,99617.86
2022-10-19T07:11:12.118Z,99606.36
2022-10-19T07:12:14.237Z,99609.86
2022-10-19T07:13:16.320Z,99605.52
2022-10-19T07:14:18.362Z,99602.84
2022-10-19T07:15:20.489Z,99617.01
2022-10-19T07:16:22.706Z,99607.20
2022-10-19T07:17:24.930Z,99604.63
2022-10-19T07:18:27.359Z,99619.67
2022-10-19T07:19:30.767Z,99610.74
2022-10-19T07:20:39.692Z,99631.17
2022-10-19T07:21:41.853Z,99615.19
2022-10-19T07:22:44.407Z,99617.86
2022-10-19T07:23:47.172Z,99609.86
2022-10-19T07:24:49.958Z,99616.07
2022-10-19T07:25:52.609Z,99609.86
2022-10-19T07:26:54.827Z,99606.27
2022-10-19T07:27:56.961Z,99603.69
2022-10-19T07:28:59.603Z,99597.42
2022-10-19T07:30:02.754Z,99605.41
2022-10-19T07:32:19.370Z,99598.80
2022-10-19T07:33:22.664Z,99593.42
2022-10-19T07:34:28.912Z,99602.44
2022-10-19T07:35:32.285Z,99596.23
2022-10-19T07:36:35.050Z,99603.48
2022-10-19T07:37:39.296Z,99593.77
2022-10-19T07:38:41.973Z,99595.68
2022-10-19T07:39:44.747Z,99602.04
2022-10-19T07:40:47.608Z,99607.45
2022-10-19T07:41:50.286Z,99603.07
2022-10-19T07:42:54.311Z,99609.25
2022-10-19T07:43:56.946Z,99610.13
2022-10-19T07:44:58.910Z,99599.63
2022-10-19T07:46:09.343Z,99609.53
2022-10-19T07:47:11.763Z,99613.13
2022-10-19T07:48:13.767Z,99600.00
2022-10-19T07:49:16.856Z,99608.93
2022-10-19T07:50:20.463Z,99595.61
2022-10-19T07:51:23.190Z,99601.97
2022-10-19T07:52:25.473Z,99605.61
2022-10-19T07:53:28.115Z,99605.01
2022-10-19T07:54:31.141Z,99606.92
2022-10-19T07:55:33.886Z,99608.80
2022-10-19T07:56:36.467Z,99614.21
2022-10-19T07:57:40.709Z,99602.02
2022-10-19T07:58:49.035Z,99604.69
2022-10-19T07:59:51.394Z,99604.69
2022-10-19T08:01:02.681Z,99594.80
2022-10-19T08:05:00.352Z,99598.84
2022-10-19T08:05:57.518Z,99591.60
2022-10-19T08:07:01.166Z,99602.06
2022-10-19T08:08:04.424Z,99602.85
2022-10-19T08:09:06.915Z,99593.05
2022-10-19T08:10:11.782Z,99594.67
2022-10-19T08:11:16.929Z,99596.40
2022-10-19T08:12:18.935Z,99596.31
2022-10-19T08:13:22.166Z,99600.69
2022-10-19T08:14:24.393Z,99598.03
2022-10-19T08:15:28.570Z,99607.23
2022-10-19T08:17:48.430Z,99601.81
2022-10-19T08:18:52.405Z,99604.41
2022-10-19T08:19:54.650Z,99600.81
2022-10-19T08:20:57.452Z,99596.33
2022-10-19T08:22:00.035Z,99590.95
2022-10-19T08:23:02.864Z,99589.13
2022-10-19T08:24:12.204Z,99593.52
2022-10-19T08:25:15.211Z,99598.93
2022-10-19T08:26:17.492Z,99599.55
2022-10-19T08:27:19.595Z,99585.73
2022-10-19T08:28:22.245Z,99580.59
2022-10-19T08:29:25.596Z,99581.34
2022-10-19T08:30:29.475Z,99585.64
2022-10-19T08:31:33.625Z,99592.50
2022-10-19T08:32:36.429Z,99588.91
2022-10-19T08:33:39.258Z,99592.31
2022-10-19T08:34:41.384Z,99583.58
2022-10-19T08:35:44.631Z,99593.44
2022-10-19T08:36:46.947Z,99600.77
2022-10-19T08:37:49.353Z,99603.57
2022-10-19T08:38:51.754Z,99605.39
2022-10-19T08:39:54.389Z,99591.14
2022-10-19T08:40:56.479Z,99589.33
2022-10-19T08:42:05.602Z,99599.13
2022-10-19T08:43:13.354Z,99594.66
2022-10-19T08:44:56.194Z,99589.61
2022-10-19T08:47:41.601Z,99596.47
2022-10-19T08:48:44.142Z,99614.16
2022-10-19T08:49:48.136Z,99588.01
2022-10-19T08:50:52.167Z,99601.36
2022-10-19T08:51:57.429Z,99589.13
2022-10-19T08:53:02.859Z,99585.58
2022-10-19T08:54:08.590Z,99599.77
2022-10-19T08:55:16.461Z,99583.86
2022-10-19T08:56:49.507Z,99595.47
2022-10-19T08:57:42.002Z,99605.14
2022-10-19T09:01:57.007Z,99607.95
2022-10-19T09:03:37.430Z,99613.53
2022-10-19T09:05:57.952Z,99591.14
2022-10-19T09:07:24.795Z,99595.24
2022-10-19T09:08:26.991Z,99584.60
2022-10-19T09:09:30.847Z,99599.72
2022-10-19T09:10:36.151Z,99601.35
2022-10-19T09:11:40.515Z,99591.47
2022-10-19T09:13:03.877Z,99605.47
2022-10-19T09:14:21.806Z,99598.22
2022-10-19T09:15:28.518Z,99607.75
2022-10-19T09:16:31.703Z,99603.97
2022-10-19T09:17:35.959Z,99601.12
2022-10-19T09:18:39.401Z,99624.05
2022-10-19T09:19:41.512Z,99602.58
2022-10-19T09:20:45.244Z,99598.89
2022-10-19T09:23:26.647Z,99607.72
2022-10-19T09:24:36.663Z,99604.64
2022-10-19T09:25:40.041Z,99614.31
2022-10-19T09:29:14.616Z,99592.59
2022-10-19T09:30:19.765Z,99597.91
2022-10-19T09:31:40.322Z,99595.16
2022-10-19T09:32:40.851Z,99613.70
2022-10-19T09:33:43.859Z,99596.70
2022-10-19T09:34:51.255Z,99601.09
2022-10-19T09:35:53.523Z,99614.21
2022-10-19T09:36:56.710Z,99592.83
2022-10-19T09:37:59.288Z,99588.34
2022-10-19T09:39:01.879Z,99601.59
2022-10-19T09:40:05.553Z,99599.50
2022-10-19T09:41:23.144Z,99599.50
2022-10-19T09:42:30.695Z,99597.72
2022-10-19T09:43:33.566Z,99588.75
2022-10-19T09:44:38.470Z,99578.89
2022-10-19T09:47:36.875Z,99577.29
2022-10-19T09:48:53.467Z,99582.30
2022-10-19T09:50:15.239Z,99579.64
2022-10-19T09:51:18.976Z,99580.61
2022-10-19T09:52:36.527Z,99582.30
2022-10-19T09:53:45.155Z,99580.52
2022-10-19T09:54:50.316Z,99570.81
2022-10-19T09:56:01.677Z,99574.31
2022-10-19T09:57:04.357Z,99561.00
2022-10-19T09:58:17.289Z,99564.55
2022-10-19T09:59:23.816Z,99560.06
2022-10-19T10:01:46.438Z,99564.76
2022-10-19T10:02:50.701Z,99560.91
2022-10-19T10:03:55.848Z,99562.63
2022-10-19T10:05:05.548Z,99548.47
2022-10-19T10:07:26.999Z,99560.96
2022-10-19T10:08:30.497Z,99560.75
2022-10-19T10:09:33.802Z,99559.87
2022-10-19T10:10:44.410Z,99558.09
2022-10-19T10:11:47.757Z,99559.78
2022-10-19T10:12:51.743Z,99557.12
2022-10-19T10:13:55.172Z,99563.22
2022-10-19T10:14:57.283Z,99555.52
2022-10-19T10:16:00.673Z,99555.52
2022-10-19T10:17:07.537Z,99559.63
2022-10-19T10:18:20.085Z,99564.85
2022-10-19T10:19:28.195Z,99563.12
2022-10-19T10:20:30.885Z,99562.19
2022-10-19T10:21:35.109Z,99555.98
2022-10-19T10:22:38.035Z,99562.28
2022-10-19T10:23:41.034Z,99552.77
2022-10-19T10:24:46.791Z,99552.77
2022-10-19T10:25:49.581Z,99548.28
2022-10-19T10:27:03.482Z,99561.59
2022-10-19T10:28:20.043Z,99549.13
2022-10-19T10:30:46.461Z,99557.33
2022-10-19T10:33:13.532Z,99550.56
2022-10-19T10:34:45.629Z,99555.67
2022-10-19T10:35:37.648Z,99540.73
2022-10-19T10:36:39.928Z,99549.01
2022-10-19T10:37:47.386Z,99545.59
2022-10-19T10:38:51.328Z,99545.69
2022-10-19T10:39:56.684Z,99547.57
2022-10-19T10:41:01.747Z,99540.61
2022-10-19T10:42:07.440Z,99539.77
2022-10-19T10:43:14.893Z,99533.56
2022-10-19T10:44:22.133Z,99538.05
2022-10-19T10:45:33.151Z,99540.02
2022-10-19T10:46:40.957Z,99538.52
2022-10-19T10:47:43.431Z,99543.99
2022-10-19T10:48:57.508Z,99533.44
2022-10-19T10:50:01.410Z,99536.11
2022-10-19T10:51:05.005Z,99529.75
2022-10-19T10:52:13.150Z,99529.84
2022-10-19T10:53:35.498Z,99524.70
2022-10-19T10:54:38.745Z,99538.95
2022-10-19T10:55:43.221Z,99528.40
2022-10-19T10:57:12.570Z,99532.00
2022-10-19T10:58:20.630Z,99526.67
2022-10-19T10:59:25.738Z,99537.41
2022-10-19T11:00:27.857Z,99520.51
2022-10-19T11:01:36.533Z,99532.09
2022-10-19T11:03:00.706Z,99518.03
2022-10-19T11:04:14.512Z,99517.94
2022-10-19T11:05:22.394Z,99522.14
2022-10-19T11:06:25.371Z,99529.15
2022-10-19T11:07:28.192Z,99525.55
2022-10-19T11:08:40.100Z,99529.05
2022-10-19T11:09:43.828Z,99526.39
2022-10-19T11:10:55.844Z,99536.01
2022-10-19T11:12:00.952Z,99520.05
2022-10-19T11:13:09.796Z,99518.07
2022-10-19T11:14:31.050Z,99515.31
2022-10-19T11:15:58.989Z,99514.38
2022-10-19T11:17:16.627Z,99514.38
2022-10-19T11:19:42.823Z,99505.76
2022-10-19T11:20:59.359Z,99509.99
2022-10-19T11:22:25.040Z,99505.42
2022-10-19T11:24:51.910Z,99504.23
2022-10-19T11:26:06.827Z,99501.16
2022-10-19T11:27:25.258Z,99499.44
2022-10-19T11:28:34.235Z,99507.42
2022-10-19T11:31:08.896Z,99489.39
2022-10-19T11:32:41.375Z,99488.20
2022-10-19T11:34:06.404Z,99479.38
2022-10-19T11:35:21.619Z,99480.02
2022-10-19T11:36:45.932Z,99473.86
2022-10-19T11:38:29.889Z,99465.97
2022-10-19T11:39:30.714Z,99480.02
2022-10-19T11:42:13.785Z,99454.84
2022-10-19T11:43:26.968Z,99464.34
2022-10-19T11:44:57.273Z,99465.47
2022-10-19T11:46:11.855Z,99452.36
2022-10-19T11:47:38.714Z,99455.95
2022-10-19T11:48:56.632Z,99456.84
2022-10-19T11:50:18.879Z,99455.86
2022-10-19T11:51:35.099Z,99444.19
2022-10-19T11:53:02.037Z,99448.56
2022-10-19T11:54:30.611Z,99464.44
2022-10-19T11:55:48.324Z,99434.23
2022-10-19T11:58:14.298Z,99440.50
2022-10-19T12:00:41.785Z,99449.27
2022-10-19T12:01:57.175Z,99446.30
2022-10-19T12:03:04.090Z,99450.69
2022-10-19T12:04:29.033Z,99456.76
2022-10-19T12:05:51.337Z,99433.48
2022-10-19T12:07:18.764Z,99444.79
2022-10-19T12:08:28.132Z,99452.68
2022-10-19T12:11:29.854Z,99445.57
2022-10-19T12:13:58.634Z,99432.94
2022-10-19T12:15:05.028Z,99429.98
2022-10-19T12:16:17.122Z,99448.53
2022-10-19T12:18:43.713Z,99423.53
2022-10-19T12:21:13.116Z,99422.67
2022-10-19T12:22:20.839Z,99413.42
2022-10-19T12:23:44.813Z,99408.88
2022-10-19T12:24:49.622Z,99415.83
2022-10-19T12:25:53.123Z,99421.89
2022-10-19T12:26:56.114Z,99423.61
2022-10-19T12:27:59.381Z,99441.31
2022-10-19T12:29:04.808Z,99420.85
2022-10-19T12:30:16.783Z,99433.12
2022-10-19T12:31:19.361Z,99415.33
2022-10-19T12:32:22.451Z,99410.78
2022-10-19T12:33:28.884Z,99424.00
2022-10-19T12:34:34.822Z,99426.56
2022-10-19T12:36:06.215Z,99413.14
2022-10-19T12:37:32.595Z,99432.53
2022-10-19T12:38:59.683Z,99417.43
2022-10-19T12:40:29.623Z,99427.14
2022-10-19T12:41:47.792Z,99432.47
2022-10-19T12:44:32.298Z,99422.19
2022-10-19T12:45:37.236Z,99423.70
2022-10-19T12:46:42.595Z,99424.64
2022-10-19T12:48:12.125Z,99414.87
2022-10-19T12:49:30.627Z,99426.36
2022-10-19T12:50:52.455Z,99414.77
2022-10-19T12:51:55.678Z,99416.48
2022-10-19T12:52:58.860Z,99415.61
2022-10-19T12:54:07.919Z,99405.90
2022-10-19T12:55:16.844Z,99408.50
2022-10-19T12:56:23.690Z,99412.00
2022-10-19T12:57:28.029Z,99411.05
2022-10-19T12:58:43.633Z,99411.80
2022-10-19T12:59:44.022Z,99412.64
2022-10-19T13:00:59.635Z,99410.96
2022-10-19T13:02:04.718Z,99417.13
2022-10-19T13:03:14.953Z,99409.07
2022-10-19T13:04:23.372Z,99412.61
2022-10-19T13:05:27.023Z,99414.30
2022-10-19T13:06:31.322Z,99404.42
2022-10-19T13:07:34.841Z,99406.14
2022-10-19T13:08:42.869Z,99394.50
2022-10-19T13:09:46.567Z,99392.72
2022-10-19T13:11:03.659Z,99393.56
2022-10-19T13:12:22.105Z,99397.06
2022-10-19T13:13:46.408Z,99395.17
2022-10-19T13:14:54.303Z,99397.73
2022-10-19T13:15:56.483Z,99398.48
2022-10-19T13:17:00.377Z,99390.59
2022-10-19T13:18:13.913Z,99410.96
2022-10-19T13:20:33.468Z,99396.12
2022-10-19T13:23:09.845Z,99392.58
2022-10-19T13:25:39.862Z,99385.45
2022-10-19T13:26:42.715Z,99382.59
2022-10-19T13:27:45.798Z,99381.75
2022-10-19T13:28:53.906Z,99379.94
2022-10-19T13:29:56.538Z,99386.14
2022-10-19T13:31:04.928Z,99384.22
2022-10-19T13:32:41.513Z,99382.43
2022-10-19T13:33:44.881Z,99382.22
2022-10-19T13:34:47.324Z,99378.61
2022-10-19T13:36:03.052Z,99380.30
2022-10-19T13:37:05.976Z,99377.73
2022-10-19T13:38:20.679Z,99377.73
2022-10-19T13:39:26.269Z,99374.13
2022-10-19T13:40:29.546Z,99380.30
2022-10-19T13:41:46.976Z,99372.30
2022-10-19T13:42:52.999Z,99380.20
2022-10-19T13:44:10.832Z,99377.63
2022-10-19T13:45:23.090Z,99366.98
2022-10-19T13:46:32.689Z,99382.86
2022-10-19T13:47:39.866Z,99374.87
2022-10-19T13:49:10.558Z,99373.92
2022-10-19T13:50:32.873Z,99374.80
2022-10-19T13:53:15.032Z,99372.39
2022-10-19T13:54:27.627Z,99376.69
2022-10-19T13:55:51.639Z,99372.30